Time;durP1;ratioP1;P1;durP2;ratioP2;P2;SDS_P1;SDS_P2;PMS_P1;PMS_P2;Temp;Humidity;BMP_temperature;BMP_pressure;BME280_temperature;BME280_humidity;BME280_pressure;Samples;Min_cycle;Max_cycle;Signal;HPM_P1;HPM_P2
2021/11/02 00:01:25;;;;;;;6.60;4.03;;;;;;;-143.37;100.00;65745.06;5092884;28;20240;-71
2021/11/02 00:03:53;;;;;;;6.30;3.80;;;;;;;-143.37;100.00;65745.06;5093882;28;20222;-71
2021/11/02 00:06:20;;;;;;;5.50;3.60;;;;;;;-143.37;100.00;65745.06;5093429;28;20204;-71
2021/11/02 00:08:49;;;;;;;5.50;3.77;;;;;;;-143.37;100.00;65745.06;5093300;28;20224;-71
2021/11/02 00:11:16;;;;;;;5.73;3.60;;;;;;;-143.37;100.00;65745.06;5092478;28;20568;-71
2021/11/02 00:13:46;;;;;;;8.70;4.23;;;;;;;-143.37;100.00;65745.06;5091717;28;20234;-71
2021/11/02 00:16:16;;;;;;;6.80;3.83;;;;;;;-143.37;100.00;65745.06;5092147;28;20652;-71
2021/11/02 00:18:55;;;;;;;6.47;4.57;;;;;;;-143.37;100.00;65745.06;5091922;28;20220;-70
2021/11/02 00:21:23;;;;;;;6.73;4.27;;;;;;;-143.37;100.00;65745.06;5092407;28;20249;-70
2021/11/02 00:23:57;;;;;;;7.30;4.43;;;;;;;-143.37;100.00;65745.06;5092726;28;20751;-70
2021/11/02 00:26:24;;;;;;;7.80;4.53;;;;;;;-143.37;100.00;65745.06;5092403;28;20207;-71
2021/11/02 00:28:51;;;;;;;6.27;4.40;;;;;;;-143.37;100.00;65745.06;5093279;28;20220;-71
2021/11/02 00:31:17;;;;;;;5.77;4.30;;;;;;;-143.37;100.00;65745.06;5092445;28;20228;-70
2021/11/02 00:33:44;;;;;;;6.43;4.60;;;;;;;-143.37;100.00;65745.06;5093104;28;20259;-71
2021/11/02 00:36:10;;;;;;;6.07;4.13;;;;;;;-143.37;100.00;65745.06;5093099;28;20204;-71
2021/11/02 00:38:37;;;;;;;6.87;4.03;;;;;;;-143.37;100.00;65745.06;5092718;28;20239;-69
2021/11/02 00:41:03;;;;;;;5.63;4.30;;;;;;;-143.37;100.00;65745.06;5092122;28;20243;-69
2021/11/02 00:43:31;;;;;;;4.63;3.40;;;;;;;-143.37;100.00;65745.06;5092771;28;20224;-71
2021/11/02 00:45:57;;;;;;;5.93;3.80;;;;;;;-143.37;100.00;65745.06;5092505;28;20322;-70
2021/11/02 00:48:24;;;;;;;5.77;4.20;;;;;;;-143.37;100.00;65745.06;5072220;28;20223;-70
2021/11/02 00:50:51;;;;;;;5.37;3.73;;;;;;;-143.37;100.00;65745.06;5071364;28;20653;-70
2021/11/02 00:53:18;;;;;;;5.30;3.70;;;;;;;-143.37;100.00;65745.06;5070620;28;20717;-70
2021/11/02 00:55:45;;;;;;;5.43;3.50;;;;;;;-143.37;100.00;65745.06;5070995;28;20297;-70
2021/11/02 00:58:12;;;;;;;5.93;4.37;;;;;;;-143.37;100.00;65745.06;5078505;28;20228;-70
2021/11/02 01:34:33;;;;;;;8.23;3.77;;;;;;;;;;5109632;27;20535;-69
2021/11/02 01:36:59;;;;;;;6.20;3.90;;;;;;;;;;5110625;28;20580;-69
2021/11/02 01:39:27;;;;;;;5.17;3.70;;;;;;;;;;5110415;28;20295;-69
2021/11/02 01:41:53;;;;;;;5.70;3.30;;;;;;;;;;5111467;28;20250;-70
2021/11/02 01:44:22;;;;;;;6.50;4.10;;;;;;;;;;5111410;28;20684;-69
2021/11/02 01:46:48;;;;;;;5.37;3.40;;;;;;;;;;5109708;28;20207;-69
2021/11/02 01:49:17;;;;;;;4.47;3.40;;;;;;;;;;5109321;28;20211;-70
2021/11/02 01:51:44;;;;;;;4.70;3.20;;;;;;;;;;5108545;28;20302;-70
2021/11/02 01:54:11;;;;;;;5.60;3.40;;;;;;;;;;5108946;28;20228;-70
2021/11/02 01:56:37;;;;;;;4.67;3.33;;;;;;;;;;5109126;28;20200;-70
2021/11/02 01:59:04;;;;;;;3.63;2.77;;;;;;;;;;5109090;28;20212;-68
2021/11/02 02:01:39;;;;;;;5.00;2.70;;;;;;;;;;5108135;28;20299;-70
2021/11/02 02:04:09;;;;;;;4.10;2.53;;;;;;;;;;5107371;28;20582;-70
2021/11/02 02:06:39;;;;;;;8.20;3.23;;;;;;;;;;5108791;28;20664;-69
2021/11/02 02:09:14;;;;;;;3.03;2.27;;;;;;;;;;5108721;28;20310;-68
2021/11/02 02:12:00;;;;;;;7.50;2.97;;;;;;;;;;5107946;28;20694;-71
2021/11/02 02:14:30;;;;;;;3.47;2.60;;;;;;;;;;5108247;28;20330;-71
2021/11/02 02:16:58;;;;;;;4.13;2.77;;;;;;;;;;5107643;28;20210;-69
2021/11/02 02:19:43;;;;;;;3.77;2.97;;;;;;;;;;5107980;28;20303;-68
2021/11/02 02:22:15;;;;;;;3.50;2.40;;;;;;;;;;5109026;27;20286;-70
2021/11/02 02:24:53;;;;;;;4.93;2.60;;;;;;;;;;5108624;28;20307;-70
2021/11/02 02:27:32;;;;;;;3.03;2.13;;;;;;;;;;5109215;28;20200;-71
2021/11/02 02:30:01;;;;;;;3.80;2.20;;;;;;;;;;5107670;28;20239;-70
2021/11/02 02:32:28;;;;;;;4.17;2.87;;;;;;;;;;5108200;28;20216;-70
2021/11/02 02:34:57;;;;;;;3.23;2.30;;;;;;;;;;5108319;28;20230;-70
2021/11/02 02:37:24;;;;;;;4.40;2.13;;;;;;;;;;5107992;28;20703;-70
2021/11/02 02:39:53;;;;;;;3.33;2.03;;;;;;;;;;5107619;28;20287;-70
2021/11/02 02:42:19;;;;;;;2.70;2.10;;;;;;;;;;5108264;28;20201;-70
2021/11/02 02:44:48;;;;;;;4.67;2.00;;;;;;;;;;5100991;28;20311;-69
2021/11/02 02:47:18;;;;;;;2.57;2.20;;;;;;;;;;5083601;28;20296;-70
2021/11/02 02:49:45;;;;;;;5.53;2.77;;;;;;;;;;5073372;28;20303;-70
2021/11/02 02:52:13;;;;;;;3.00;2.30;;;;;;;;;;5073855;28;20205;-69
2021/11/02 02:54:43;;;;;;;2.97;2.40;;;;;;;;;;5073752;28;20231;-69
2021/11/02 02:57:10;;;;;;;3.23;2.27;;;;;;;;;;5074252;28;20291;-69
2021/11/02 02:59:37;;;;;;;3.37;2.70;;;;;;;;;;5091445;28;20200;-70
2021/11/02 03:02:04;;;;;;;3.67;2.40;;;;;;;;;;5098679;28;20301;-70
2021/11/02 03:04:34;;;;;;;3.97;2.80;;;;;;;;;;5107336;28;20220;-70
2021/11/02 03:07:01;;;;;;;2.50;2.13;;;;;;;;;;5100931;28;20673;-71
2021/11/02 03:09:28;;;;;;;3.43;2.37;;;;;;;;;;5093716;28;20636;-69
2021/11/02 03:11:55;;;;;;;2.60;2.10;;;;;;;;;;5093868;28;20213;-70
2021/11/02 03:14:28;;;;;;;4.53;2.77;;;;;;;;;;5093882;28;20236;-70
2021/11/02 03:44:27;;;;;;;3.47;2.37;;;;;;;;;;5093944;28;20311;-71
2021/11/02 03:54:59;;;;;;;4.53;3.20;;;;;;;;;;5073079;28;20311;-71
2021/11/02 05:08:56;;;;;;;6.67;4.30;;;;;;;;;;5091836;28;20245;-70
2021/11/02 05:47:13;;;;;;;5.23;3.90;;;;;;;;;;5080232;28;20201;-70
2021/11/02 06:00:19;;;;;;;4.27;3.27;;;;;;;;;;5089885;28;20253;-69
2021/11/02 06:08:26;;;;;;;5.00;3.50;;;;;;;;;;5089544;28;20208;-71
2021/11/02 06:11:11;;;;;;;5.67;3.20;;;;;;;;;;5090384;28;20288;-68
2021/11/02 06:30:32;;;;;;;6.63;3.80;;;;;;;;;;5093456;28;20223;-70
2021/11/02 06:33:45;;;;;;;6.47;4.10;;;;;;;;;;5094111;28;20302;-70
2021/11/02 06:44:22;;;;;;;4.90;3.20;;;;;;;;;;5092551;28;20304;-68
2021/11/02 06:53:33;;;;;;;5.90;3.63;;;;;;;;;;5091478;28;20284;-70
2021/11/02 06:58:18;;;;;;;4.70;3.30;;;;;;;;;;5092166;28;20701;-71
2021/11/02 07:25:45;;;;;;;6.10;3.47;;;;;;;;;;5077957;28;20203;-68
2021/11/02 08:46:38;;;;;;;8.40;5.40;;;;;;;;;;5088462;28;20223;-71
2021/11/02 08:49:06;;;;;;;9.00;5.97;;;;;;;;;;5071904;28;20296;-71
2021/11/02 08:51:33;;;;;;;10.53;6.27;;;;;;;;;;5082615;28;20209;-72
2021/11/02 08:53:59;;;;;;;10.80;5.60;;;;;;;;;;5076588;28;20772;-72
2021/11/02 08:56:26;;;;;;;8.23;5.50;;;;;;;;;;5074901;28;20239;-71
2021/11/02 08:58:53;;;;;;;8.67;6.40;;;;;;;;;;5083708;28;20200;-71
2021/11/02 09:01:40;;;;;;;8.20;5.07;;;;;;;;;;5091472;28;20201;-70
2021/11/02 09:04:08;;;;;;;7.13;5.30;;;;;;;;;;5092557;28;20289;-72
2021/11/02 09:06:36;;;;;;;7.30;4.90;;;;;;;;;;5091732;28;20224;-71
2021/11/02 09:09:05;;;;;;;8.47;5.30;;;;;;;;;;5091981;28;20293;-69
2021/11/02 09:11:31;;;;;;;8.30;5.57;;;;;;;;;;5091431;28;20201;-71
2021/11/02 09:13:58;;;;;;;5.77;4.17;;;;;;;;;;5091908;28;20259;-71
2021/11/02 09:16:25;;;;;;;7.47;5.33;;;;;;;;;;5091837;28;20227;-71
2021/11/02 09:18:53;;;;;;;5.87;4.50;;;;;;;;;;5091604;28;20287;-71
2021/11/02 09:21:21;;;;;;;7.67;4.20;;;;;;;;;;5090668;28;20228;-71
2021/11/02 09:23:49;;;;;;;6.40;4.23;;;;;;;;;;5091583;28;20224;-69
2021/11/02 09:26:17;;;;;;;6.67;4.87;;;;;;;;;;5091637;28;20247;-71
2021/11/02 09:28:44;;;;;;;7.30;3.63;;;;;;;;;;5091455;28;20673;-70
2021/11/02 09:31:11;;;;;;;8.33;4.57;;;;;;;;;;5091645;28;20208;-73
2021/11/02 09:33:37;;;;;;;7.13;3.80;;;;;;;;;;5091686;28;20272;-72
2021/11/02 09:36:06;;;;;;;5.97;3.50;;;;;;;;;;5091075;28;20224;-71
2021/11/02 09:38:37;;;;;;;6.17;3.77;;;;;;;;;;5091295;28;20231;-72
2021/11/02 09:41:18;;;;;;;5.30;3.17;;;;;;;;;;5090915;28;20206;-68
2021/11/02 09:44:01;;;;;;;6.37;3.20;;;;;;;;;;5090311;28;20234;-68
2021/11/02 09:46:46;;;;;;;5.10;2.80;;;;;;;;;;5087534;28;20197;-71
2021/11/02 09:49:31;;;;;;;2.90;2.33;;;;;;;;;;5071442;28;20213;-69
2021/11/02 09:52:17;;;;;;;4.57;2.40;;;;;;;;;;5070886;28;20304;-69
2021/11/02 09:55:02;;;;;;;3.27;2.50;;;;;;;;;;5071820;28;20225;-71
2021/11/02 09:57:38;;;;;;;4.07;2.97;;;;;;;;;;5074983;28;20287;-71
2021/11/02 10:00:11;;;;;;;3.23;2.30;;;;;;;;;;5092913;28;20653;-70
2021/11/02 10:03:00;;;;;;;7.07;3.10;;;;;;;;;;5095073;28;20240;-70
2021/11/02 10:05:37;;;;;;;3.90;2.60;;;;;;;;;;5095673;28;20228;-71
2021/11/02 10:08:25;;;;;;;4.53;2.53;;;;;;;;;;5096321;28;20208;-70
2021/11/02 10:11:02;;;;;;;3.07;2.27;;;;;;;;;;5095200;28;20768;-70
2021/11/02 10:13:36;;;;;;;4.57;2.53;;;;;;;;;;5094882;28;20224;-71
2021/11/02 10:16:04;;;;;;;5.67;2.00;;;;;;;;;;5093647;28;20265;-71
2021/11/02 10:18:45;;;;;;;3.67;2.30;;;;;;;;;;5095186;28;20212;-71
2021/11/02 10:21:19;;;;;;;3.60;2.17;;;;;;;;;;5093981;28;20204;-71
2021/11/02 10:24:05;;;;;;;2.77;2.03;;;;;;;;;;5094771;28;20732;-71
2021/11/02 10:26:49;;;;;;;3.83;2.30;;;;;;;;;;5094347;28;20641;-70
2021/11/02 10:29:32;;;;;;;3.20;2.30;;;;;;;;;;5094048;28;20291;-70
2021/11/02 10:32:03;;;;;;;5.07;2.97;;;;;;;;;;5094509;28;20212;-70
2021/11/02 10:34:34;;;;;;;3.37;2.37;;;;;;;;;;5094063;28;20232;-70
2021/11/02 10:37:33;;;;;;;5.37;2.23;;;;;;;;;;5094430;28;20299;-70
2021/11/02 10:40:14;;;;;;;4.63;2.97;;;;;;;;;;5081013;28;20307;-70
2021/11/02 10:43:09;;;;;;;8.90;3.43;;;;;;;;;;5093960;28;20201;-72
2021/11/02 10:45:38;;;;;;;4.27;3.27;;;;;;;;;;5094247;28;20303;-71
2021/11/02 10:48:05;;;;;;;6.57;3.97;;;;;;;;;;5076424;28;20197;-71
2021/11/02 10:50:58;;;;;;;7.73;4.20;;;;;;;;;;5073206;28;20233;-71
2021/11/02 10:53:32;;;;;;;6.67;3.60;;;;;;;;;;5086791;28;20228;-71
2021/11/02 10:56:40;;;;;;;7.57;4.20;;;;;;;;;;5093871;28;20311;-71
2021/11/02 10:59:12;;;;;;;5.60;3.37;;;;;;;;;;5092805;28;20209;-71
2021/11/02 11:01:39;;;;;;;6.40;3.03;;;;;;;;;;5092693;28;20245;-71
2021/11/02 11:04:08;;;;;;;5.17;2.43;;;;;;;;;;5093352;28;20221;-71
2021/11/02 11:06:35;;;;;;;3.90;2.83;;;;;;;;;;5093036;28;20205;-71
2021/11/02 11:09:03;;;;;;;5.40;2.60;;;;;;;;;;5093685;28;20236;-71
2021/11/02 11:11:31;;;;;;;3.17;2.23;;;;;;;;;;5092540;28;20207;-71
2021/11/02 11:14:04;;;;;;;3.10;2.53;;;;;;;;;;5093514;28;20221;-71
2021/11/02 11:16:33;;;;;;;6.53;3.77;;;;;;;;;;5093655;28;20235;-71
2021/11/02 11:19:09;;;;;;;5.53;3.43;;;;;;;;;;5093768;28;20261;-71
2021/11/02 11:21:37;;;;;;;3.20;2.70;;;;;;;;;;5091646;28;20200;-71
2021/11/02 11:24:10;;;;;;;4.23;2.83;;;;;;;;;;5093430;28;20297;-71
2021/11/02 11:26:43;;;;;;;7.13;2.77;;;;;;;;;;5092815;28;20281;-71
2021/11/02 11:29:11;;;;;;;6.77;3.03;;;;;;;;;;5093190;28;20287;-71
2021/11/02 11:31:38;;;;;;;6.90;2.97;;;;;;;;;;5092537;28;20299;-71
2021/11/02 11:34:04;;;;;;;3.63;2.87;;;;;;;;;;5093105;28;20233;-71
2021/11/02 11:36:33;;;;;;;2.90;2.20;;;;;;;;;;5092187;28;20259;-71
2021/11/02 11:39:01;;;;;;;3.47;2.80;;;;;;;;;;5093534;28;20247;-71
2021/11/02 11:41:32;;;;;;;5.17;2.80;;;;;;;;;;5092630;28;20240;-71
2021/11/02 11:44:01;;;;;;;4.03;2.70;;;;;;;;;;5093611;28;20321;-71
2021/11/02 11:46:28;;;;;;;4.90;3.13;;;;;;;;;;5093016;28;20687;-70
2021/11/02 11:48:56;;;;;;;3.93;2.87;;;;;;;;;;5086243;28;20212;-70
2021/11/02 11:51:23;;;;;;;6.07;3.00;;;;;;;;;;5082608;28;20207;-70
2021/11/02 11:53:56;;;;;;;6.10;3.73;;;;;;;;;;5082028;28;20591;-70
2021/11/02 11:56:23;;;;;;;4.83;3.27;;;;;;;;;;5083653;28;20274;-70
2021/11/02 11:58:51;;;;;;;4.30;3.17;;;;;;;;;;5078595;28;20223;-70
2021/11/02 12:01:24;;;;;;;3.87;3.30;;;;;;;;;;5075493;28;20196;-70
2021/11/02 12:03:55;;;;;;;6.27;3.27;;;;;;;;;;5081373;28;20641;-70
2021/11/02 12:06:25;;;;;;;6.00;3.80;;;;;;;;;;5079878;28;20200;-70
2021/11/02 12:08:51;;;;;;;7.13;3.63;;;;;;;;;;5087383;28;20343;-71
2021/11/02 12:11:22;;;;;;;5.53;3.63;;;;;;;;;;5085453;28;20241;-71
2021/11/02 12:13:50;;;;;;;5.83;3.37;;;;;;;;;;5090810;28;20315;-70
2021/11/02 12:16:21;;;;;;;3.00;2.70;;;;;;;;;;5090982;28;20638;-71
2021/11/02 12:18:54;;;;;;;5.23;2.70;;;;;;;;;;5072072;28;20292;-72
2021/11/02 12:21:21;;;;;;;5.13;3.40;;;;;;;;;;5089802;28;20204;-71
2021/11/02 12:23:49;;;;;;;4.50;3.07;;;;;;;;;;5094252;28;20256;-70
2021/11/02 12:26:17;;;;;;;4.03;3.23;;;;;;;;;;5102588;28;20224;-70
2021/11/02 12:28:46;;;;;;;5.33;4.23;;;;;;;;;;5098106;28;20208;-70
2021/11/02 12:31:14;;;;;;;8.83;4.03;;;;;;;;;;5090189;28;20299;-70
2021/11/02 12:33:47;;;;;;;4.83;3.50;;;;;;;;;;5089912;28;20232;-70
2021/11/02 12:36:18;;;;;;;5.30;3.33;;;;;;;;;;5090632;28;20220;-70
2021/11/02 12:38:45;;;;;;;5.53;3.33;;;;;;;;;;5089533;28;20204;-70
2021/11/02 12:41:19;;;;;;;6.53;4.07;;;;;;;;;;5089312;28;20250;-71
2021/11/02 12:43:46;;;;;;;4.50;3.53;;;;;;;;;;5089820;28;20220;-70
2021/11/02 12:46:13;;;;;;;5.27;3.70;;;;;;;;;;5072580;28;20204;-71
2021/11/02 12:48:40;;;;;;;6.03;3.67;;;;;;;;;;5092201;28;20201;-71
2021/11/02 12:51:14;;;;;;;5.30;3.70;;;;;;;;;;5104797;28;20268;-70
2021/11/02 12:53:45;;;;;;;5.83;3.50;;;;;;;;;;5115048;28;20228;-72
2021/11/02 12:56:16;;;;;;;7.30;3.60;;;;;;;;;;5114338;28;20286;-70
2021/11/02 12:58:43;;;;;;;5.00;3.50;;;;;;;;;;5100526;28;20201;-69
2021/11/02 13:01:10;;;;;;;4.90;3.67;;;;;;;;;;5099335;28;20216;-70
2021/11/02 13:03:42;;;;;;;5.77;3.53;;;;;;;;;;5093080;28;20254;-69
2021/11/02 13:06:10;;;;;;;5.63;3.40;;;;;;;;;;5077132;28;20254;-69
2021/11/02 13:08:57;;;;;;;6.83;3.30;;;;;;;;;;5068003;28;20232;-71
2021/11/02 13:11:26;;;;;;;5.00;3.00;;;;;;;;;;5084963;28;20210;-72
2021/11/02 13:13:56;;;;;;;5.17;2.83;;;;;;;;;;5089532;28;20772;-71
2021/11/02 13:16:24;;;;;;;4.50;2.87;;;;;;;;;;5089360;28;20220;-71
2021/11/02 13:18:50;;;;;;;3.47;2.60;;;;;;;;;;5088008;28;20212;-72
2021/11/02 13:21:29;;;;;;;3.90;2.60;;;;;;;;;;5081078;28;20204;-72
2021/11/02 13:24:02;;;;;;;3.00;2.50;;;;;;;;;;5087946;28;20319;-70
2021/11/02 13:26:29;;;;;;;5.47;3.10;;;;;;;;;;5086911;28;20311;-72
2021/11/02 13:29:09;;;;;;;8.50;3.53;;;;;;;;;;5087556;28;20284;-69
2021/11/02 13:31:35;;;;;;;8.50;2.93;;;;;;;;;;5089586;28;20200;-77
2021/11/02 13:34:09;;;;;;;4.63;2.70;;;;;;;;;;5099999;28;20282;-70
2021/11/02 13:36:36;;;;;;;3.97;2.67;;;;;;;;;;5103057;28;20799;-75
2021/11/02 13:39:04;;;;;;;4.80;3.20;;;;;;;;;;5089072;28;20303;-70
2021/11/02 13:41:32;;;;;;;7.37;3.47;;;;;;;;;;5087404;28;20269;-71
2021/11/02 13:44:04;;;;;;;4.73;3.00;;;;;;;;;;5087969;28;20307;-69
2021/11/02 13:46:35;;;;;;;5.37;2.23;;;;;;;;;;5088183;28;20615;-70
2021/11/02 13:49:02;;;;;;;4.13;2.63;;;;;;;;;;5087342;28;20196;-69
2021/11/02 13:51:29;;;;;;;2.50;2.20;;;;;;;;;;5069819;28;20212;-71
2021/11/02 13:53:56;;;;;;;4.73;2.97;;;;;;;;;;5087105;28;20968;-69
2021/11/02 13:56:25;;;;;;;3.00;2.50;;;;;;;;;;5088814;28;20267;-71
2021/11/02 13:58:53;;;;;;;3.87;2.30;;;;;;;;;;5087856;28;20644;-71
2021/11/02 14:01:30;;;;;;;3.03;2.20;;;;;;;;;;5086611;28;20621;-69
2021/11/02 14:04:15;;;;;;;6.67;3.00;;;;;;;;;;5088012;28;20750;-69
2021/11/02 14:07:01;;;;;;;6.40;3.20;;;;;;;;;;5088465;28;20251;-70
2021/11/02 14:09:29;;;;;;;3.87;2.70;;;;;;;;;;5086057;28;20287;-71
2021/11/02 14:11:56;;;;;;;5.27;2.80;;;;;;;;;;5088440;28;20220;-72
2021/11/02 14:14:35;;;;;;;5.20;2.40;;;;;;;;;;5087749;28;20313;-71
2021/11/02 14:17:21;;;;;;;3.50;2.50;;;;;;;;;;5087034;28;20220;-68
2021/11/02 14:19:50;;;;;;;8.47;3.03;;;;;;;;;;5087841;28;20232;-69
2021/11/02 14:22:36;;;;;;;2.73;1.97;;;;;;;;;;5087067;28;20217;-68
2021/11/02 14:25:12;;;;;;;3.37;2.00;;;;;;;;;;5087623;28;20317;-69
2021/11/02 14:27:42;;;;;;;2.87;1.90;;;;;;;;;;5087781;28;20707;-69
2021/11/02 14:30:09;;;;;;;2.13;1.70;;;;;;;;;;5087472;28;20234;-69
2021/11/02 14:32:35;;;;;;;3.10;2.17;;;;;;;;;;5087174;28;20307;-70
2021/11/02 14:35:09;;;;;;;3.03;2.00;;;;;;;;;;5086921;28;20768;-72
2021/11/02 14:37:49;;;;;;;2.83;1.93;;;;;;;;;;5086442;28;20225;-71
2021/11/02 14:40:35;;;;;;;3.57;1.60;;;;;;;;;;5087740;28;20800;-69
2021/11/02 14:43:14;;;;;;;3.73;2.23;;;;;;;;;;5092120;28;20693;-68
2021/11/02 14:45:42;;;;;;;4.90;1.97;;;;;;;;;;5091406;28;20231;-70
2021/11/02 14:48:29;;;;;;;4.03;2.17;;;;;;;;;;5090043;28;20223;-73
2021/11/02 14:51:05;;;;;;;4.13;1.63;;;;;;;;;;5091043;28;20208;-69
2021/11/02 14:53:35;;;;;;;7.47;2.53;;;;;;;;;;5092305;28;20704;-69
2021/11/02 14:56:05;;;;;;;3.57;1.50;;;;;;;;;;5091419;28;20220;-69
2021/11/02 14:58:38;;;;;;;3.20;1.40;;;;;;;;;;5091782;28;20204;-68
2021/11/02 15:01:05;;;;;;;2.07;1.10;;;;;;;;;;5089537;28;20215;-71
2021/11/02 15:03:33;;;;;;;1.63;1.00;;;;;;;;;;5089021;28;20228;-70
2021/11/02 15:06:08;;;;;;;7.33;1.77;;;;;;;;;;5084715;28;20201;-70
2021/11/02 15:08:38;;;;;;;2.67;1.20;;;;;;;;;;5090333;28;20215;-70
2021/11/02 15:11:12;;;;;;;1.30;1.00;;;;;;;;;;5090745;28;20200;-71
2021/11/02 15:13:45;;;;;;;3.60;1.20;;;;;;;;;;5090912;28;20262;-69
2021/11/02 15:16:12;;;;;;;2.57;1.23;;;;;;;;;;5090915;28;20232;-69
2021/11/02 15:18:41;;;;;;;5.10;1.37;;;;;;;;;;5090692;28;20427;-69
2021/11/02 15:21:07;;;;;;;1.73;0.90;;;;;;;;;;5090165;28;20196;-70
2021/11/02 15:23:42;;;;;;;2.60;1.47;;;;;;;;;;5090910;28;20302;-68
2021/11/02 15:26:28;;;;;;;2.03;1.20;;;;;;;;;;5089169;28;20218;-69
2021/11/02 15:28:54;;;;;;;5.30;1.40;;;;;;;;;;5086025;28;20215;-69
2021/11/02 15:31:22;;;;;;;1.37;1.17;;;;;;;;;;5090598;28;20287;-69
2021/11/02 15:33:49;;;;;;;2.30;1.20;;;;;;;;;;5090922;28;20681;-69
2021/11/02 15:36:18;;;;;;;2.10;1.03;;;;;;;;;;5091844;28;20228;-69
2021/11/02 15:38:55;;;;;;;4.90;1.30;;;;;;;;;;5098620;28;20200;-70
2021/11/02 15:41:22;;;;;;;3.67;2.00;;;;;;;;;;5115542;28;20180;-70
2021/11/02 15:43:50;;;;;;;1.90;1.20;;;;;;;;;;5115342;28;20317;-70
2021/11/02 15:46:23;;;;;;;1.80;1.10;;;;;;;;;;5110362;28;20208;-70
2021/11/02 15:48:54;;;;;;;2.47;1.03;;;;;;;;;;5092460;28;20339;-71
2021/11/02 15:51:20;;;;;;;4.93;1.10;;;;;;;;;;5089862;28;20312;-70
2021/11/02 15:53:47;;;;;;;3.10;1.43;;;;;;;;;;5089625;28;20365;-71
2021/11/02 15:56:13;;;;;;;2.17;1.30;;;;;;;;;;5091070;28;20218;-70
2021/11/02 15:58:40;;;;;;;2.80;1.50;;;;;;;;;;5088982;28;20240;-71
2021/11/02 16:01:06;;;;;;;4.00;1.53;;;;;;;;;;5089624;28;20210;-69
2021/11/02 16:03:34;;;;;;;1.40;1.10;;;;;;;;;;5090162;28;20220;-73
2021/11/02 16:06:04;;;;;;;3.63;1.60;;;;;;;;;;5088515;28;20676;-70
2021/11/02 16:08:32;;;;;;;1.57;1.20;;;;;;;;;;5089296;28;20211;-70
2021/11/02 16:11:06;;;;;;;4.70;1.30;;;;;;;;;;5089962;28;20209;-70
2021/11/02 16:13:33;;;;;;;2.20;1.37;;;;;;;;;;5086320;28;20596;-71
2021/11/02 16:16:00;;;;;;;2.20;1.23;;;;;;;;;;5051593;28;20289;-71
2021/11/02 16:18:29;;;;;;;4.03;1.30;;;;;;;;;;5087403;28;20283;-71
2021/11/02 16:20:57;;;;;;;1.13;1.00;;;;;;;;;;5088754;28;20669;-69
2021/11/02 16:23:25;;;;;;;2.90;1.60;;;;;;;;;;5089398;28;20273;-69
2021/11/02 16:25:53;;;;;;;4.73;1.60;;;;;;;;;;5082770;28;20299;-71
2021/11/02 16:28:21;;;;;;;2.77;1.47;;;;;;;;;;5088696;28;20208;-70
2021/11/02 16:30:50;;;;;;;1.80;1.40;;;;;;;;;;5088228;28;20196;-70
2021/11/02 16:33:17;;;;;;;1.63;1.20;;;;;;;;;;5089050;28;20914;-70
2021/11/02 16:35:51;;;;;;;4.13;1.60;;;;;;;;;;5089035;28;20291;-71
2021/11/02 16:38:28;;;;;;;2.23;1.50;;;;;;;;;;5089282;28;20285;-69
2021/11/02 16:40:56;;;;;;;4.37;1.40;;;;;;;;;;5089393;28;20207;-71
2021/11/02 16:43:26;;;;;;;3.40;1.40;;;;;;;;;;5089600;28;20250;-70
2021/11/02 16:45:53;;;;;;;6.80;1.90;;;;;;;;;;5087201;28;20275;-70
2021/11/02 16:48:31;;;;;;;6.67;2.43;;;;;;;;;;5076578;28;20203;-72
2021/11/02 16:50:58;;;;;;;2.70;1.90;;;;;;;;;;5067616;28;20215;-70
2021/11/02 16:53:25;;;;;;;5.90;2.23;;;;;;;;;;5068923;28;20307;-69
2021/11/02 16:55:52;;;;;;;4.67;1.40;;;;;;;;;;5068851;28;20205;-70
2021/11/02 16:58:21;;;;;;;1.93;1.07;;;;;;;;;;5077506;28;20226;-69
2021/11/02 17:00:48;;;;;;;1.67;1.03;;;;;;;;;;5091047;28;20272;-70
2021/11/02 17:03:22;;;;;;;1.97;1.43;;;;;;;;;;5091243;28;20255;-70
2021/11/02 17:05:49;;;;;;;3.00;1.30;;;;;;;;;;5089737;28;20254;-72
2021/11/02 17:08:16;;;;;;;1.47;0.77;;;;;;;;;;5087457;28;20204;-69
2021/11/02 17:10:42;;;;;;;1.93;1.20;;;;;;;;;;5087523;28;20215;-70
2021/11/02 17:13:27;;;;;;;2.00;1.20;;;;;;;;;;5088699;28;20211;-70
2021/11/02 17:15:58;;;;;;;2.57;1.20;;;;;;;;;;5089594;28;20283;-70
2021/11/02 17:18:43;;;;;;;1.57;1.23;;;;;;;;;;5088970;28;20788;-69
2021/11/02 17:21:10;;;;;;;2.07;1.20;;;;;;;;;;5088413;28;20223;-70
2021/11/02 17:23:37;;;;;;;2.77;0.90;;;;;;;;;;5089003;28;20231;-69
2021/11/02 17:26:05;;;;;;;3.60;1.57;;;;;;;;;;5089435;28;20200;-69
2021/11/02 17:28:36;;;;;;;2.67;1.50;;;;;;;;;;5088048;28;20394;-69
2021/11/02 17:31:05;;;;;;;2.10;1.07;;;;;;;;;;5087689;28;20206;-69
2021/11/02 17:33:33;;;;;;;1.57;1.13;;;;;;;;;;5091738;28;20245;-70
2021/11/02 17:35:59;;;;;;;2.43;1.30;;;;;;;;;;5093333;28;20836;-70
2021/11/02 17:38:25;;;;;;;3.77;1.27;;;;;;;;;;5089245;28;20311;-69
2021/11/02 17:40:53;;;;;;;1.83;1.13;;;;;;;;;;5088533;28;20294;-69
2021/11/02 17:43:21;;;;;;;1.60;0.83;;;;;;;;;;5087835;28;20573;-70
2021/11/02 17:45:48;;;;;;;1.17;0.87;;;;;;;;;;5089180;28;20283;-72
2021/11/02 17:48:15;;;;;;;1.17;1.00;;;;;;;;;;5070100;28;20219;-69
2021/11/02 17:50:42;;;;;;;2.60;0.70;;;;;;;;;;5068707;28;20299;-70
2021/11/02 17:53:08;;;;;;;1.77;0.80;;;;;;;;;;5067951;28;20237;-69
2021/11/02 17:55:35;;;;;;;0.80;0.70;;;;;;;;;;5069063;28;20209;-69
2021/11/02 17:58:03;;;;;;;0.70;0.70;;;;;;;;;;5074688;28;20869;-68
2021/11/02 18:00:29;;;;;;;0.80;0.63;;;;;;;;;;5089423;28;20204;-72
2021/11/02 18:02:56;;;;;;;2.63;0.80;;;;;;;;;;5089909;28;20251;-71
2021/11/02 18:05:24;;;;;;;1.23;0.67;;;;;;;;;;5089791;28;20207;-72
2021/11/02 18:07:51;;;;;;;1.43;0.70;;;;;;;;;;5092689;28;20211;-70
2021/11/02 18:10:17;;;;;;;1.20;0.80;;;;;;;;;;5091882;28;20299;-71
2021/11/02 18:12:44;;;;;;;0.53;0.53;;;;;;;;;;5089811;28;20208;-71
2021/11/02 18:15:10;;;;;;;1.07;0.40;;;;;;;;;;5088236;28;20217;-71
2021/11/02 18:17:38;;;;;;;1.03;0.50;;;;;;;;;;5092689;28;20319;-68
2021/11/02 18:20:05;;;;;;;1.30;0.83;;;;;;;;;;5091518;28;20196;-68
2021/11/02 18:22:31;;;;;;;1.30;0.67;;;;;;;;;;5093387;28;20228;-71
2021/11/02 18:24:58;;;;;;;0.60;0.60;;;;;;;;;;5093643;28;20816;-70
2021/11/02 18:27:24;;;;;;;1.57;0.90;;;;;;;;;;5108024;28;20208;-70
2021/11/02 18:29:52;;;;;;;3.43;1.00;;;;;;;;;;5111333;28;20212;-70
2021/11/02 18:32:20;;;;;;;2.20;0.97;;;;;;;;;;5113511;28;20209;-70
2021/11/02 18:34:46;;;;;;;1.87;0.90;;;;;;;;;;5095736;28;20228;-70
2021/11/02 18:37:14;;;;;;;1.00;0.80;;;;;;;;;;5091439;28;20714;-70
2021/11/02 18:39:41;;;;;;;1.23;1.00;;;;;;;;;;5092403;28;20415;-72
2021/11/02 18:42:08;;;;;;;1.90;1.10;;;;;;;;;;5095626;28;20239;-72
2021/11/02 18:44:35;;;;;;;1.80;1.00;;;;;;;;;;5076236;28;20225;-72
2021/11/02 18:47:02;;;;;;;1.37;0.97;;;;;;;;;;5080979;28;20243;-70
2021/11/02 18:49:30;;;;;;;1.20;0.80;;;;;;;;;;5092239;28;20903;-70
2021/11/02 18:51:57;;;;;;;1.30;0.83;;;;;;;;;;5093153;28;20349;-70
2021/11/02 18:54:24;;;;;;;1.70;0.73;;;;;;;;;;5092892;28;20232;-70
2021/11/02 18:56:50;;;;;;;2.17;0.90;;;;;;;;;;5093528;28;20331;-70
2021/11/02 18:59:17;;;;;;;2.80;1.13;;;;;;;;;;5093180;28;20665;-70
2021/11/02 19:01:49;;;;;;;2.73;1.40;;;;;;;;;;5093982;28;20295;-70
2021/11/02 19:04:17;;;;;;;3.70;1.37;;;;;;;;;;5094011;28;20274;-70
2021/11/02 19:06:43;;;;;;;1.80;1.20;;;;;;;;;;5093728;28;20233;-69
2021/11/02 19:09:10;;;;;;;2.93;1.37;;;;;;;;;;5093279;28;20227;-68
2021/11/02 19:11:36;;;;;;;1.13;0.90;;;;;;;;;;5092745;28;20283;-69
2021/11/02 19:14:06;;;;;;;2.37;1.30;;;;;;;;;;5093338;28;20223;-70
2021/11/02 19:16:33;;;;;;;1.77;1.30;;;;;;;;;;5092881;28;20211;-70
2021/11/02 19:19:00;;;;;;;1.93;1.30;;;;;;;;;;5092733;28;20323;-70
2021/11/02 19:21:27;;;;;;;3.63;1.27;;;;;;;;;;5091880;28;20251;-70
2021/11/02 19:23:53;;;;;;;1.63;1.20;;;;;;;;;;5092991;28;20252;-70
2021/11/02 19:26:20;;;;;;;2.57;1.10;;;;;;;;;;5092753;28;20637;-70
2021/11/02 19:28:48;;;;;;;2.60;1.37;;;;;;;;;;5093024;28;20762;-69
2021/11/02 19:31:14;;;;;;;2.67;1.27;;;;;;;;;;5090382;28;20255;-69
2021/11/02 19:33:41;;;;;;;2.77;1.60;;;;;;;;;;5092753;28;20272;-69
2021/11/02 19:36:07;;;;;;;2.97;1.40;;;;;;;;;;5092684;28;20300;-70
2021/11/02 19:38:35;;;;;;;1.30;1.10;;;;;;;;;;5092714;28;20319;-69
2021/11/02 19:41:01;;;;;;;3.20;1.60;;;;;;;;;;5091914;28;20655;-69
2021/11/02 19:43:28;;;;;;;3.07;1.23;;;;;;;;;;5091521;28;20235;-69
2021/11/02 19:45:55;;;;;;;1.87;1.30;;;;;;;;;;5091722;28;20196;-67
2021/11/02 19:48:22;;;;;;;6.23;1.77;;;;;;;;;;5072786;28;20201;-69
2021/11/02 19:50:48;;;;;;;4.07;1.77;;;;;;;;;;5072025;28;20209;-70
2021/11/02 19:53:20;;;;;;;4.33;1.93;;;;;;;;;;5072584;28;20279;-71
2021/11/02 19:55:48;;;;;;;2.27;1.63;;;;;;;;;;5071106;28;20293;-67
2021/11/02 19:58:14;;;;;;;2.40;1.87;;;;;;;;;;5078001;28;20303;-70
2021/11/02 20:00:42;;;;;;;2.20;1.60;;;;;;;;;;5091528;28;20615;-69
2021/11/02 20:03:09;;;;;;;2.43;1.53;;;;;;;;;;5092099;28;20284;-68
2021/11/02 20:05:37;;;;;;;2.77;1.90;;;;;;;;;;5091953;28;20687;-69
2021/11/02 20:08:05;;;;;;;3.63;2.00;;;;;;;;;;5092055;28;20216;-67
2021/11/02 20:10:33;;;;;;;3.33;2.33;;;;;;;;;;5091315;28;20242;-69
2021/11/02 20:13:02;;;;;;;2.20;1.57;;;;;;;;;;5091721;28;20284;-68